createdAt,value
2022-11-14T00:00:30.327Z,101106.75
2022-11-14T00:03:00.990Z,101107.22
2022-11-14T00:05:30.486Z,101093.72
2022-11-14T00:07:58.184Z,101095.75
2022-11-14T00:10:26.336Z,101083.72
2022-11-14T00:12:53.990Z,101088.19
2022-11-14T00:15:21.696Z,101082.38
2022-11-14T00:17:49.479Z,101080.19
2022-11-14T00:20:17.125Z,101078.47
2022-11-14T00:22:46.102Z,101079.44
2022-11-14T00:25:13.822Z,101067.72
2022-11-14T00:27:41.466Z,101060.00
2022-11-14T00:30:09.892Z,101065.03
2022-11-14T00:32:37.544Z,101064.81
2022-11-14T00:35:05.470Z,101050.59
2022-11-14T00:37:33.160Z,101056.94
2022-11-14T00:40:02.199Z,101056.25
2022-11-14T00:42:29.868Z,101044.06
2022-11-14T00:44:57.544Z,101045.66
2022-11-14T00:47:25.228Z,101047.47
2022-11-14T00:49:52.908Z,101033.47
2022-11-14T00:52:20.554Z,101038.72
2022-11-14T00:54:48.213Z,101032.94
2022-11-14T00:57:17.227Z,101030.78
2022-11-14T00:59:44.888Z,101033.84
2022-11-14T01:02:12.595Z,101023.44
2022-11-14T01:04:40.496Z,101022.66
2022-11-14T01:07:08.139Z,101018.41
2022-11-14T01:09:35.886Z,101007.38
2022-11-14T01:12:03.832Z,101008.25
2022-11-14T01:14:32.863Z,100995.63
2022-11-14T01:17:00.594Z,100991.16
2022-11-14T01:19:28.242Z,100988.91
2022-11-14T01:21:55.903Z,100989.31
2022-11-14T01:24:23.570Z,100991.03
2022-11-14T01:26:51.224Z,100979.75
2022-11-14T01:29:18.888Z,100979.28
2022-11-14T01:31:47.859Z,100990.06
2022-11-14T01:34:15.520Z,100996.50
2022-11-14T01:36:43.380Z,100973.44
2022-11-14T01:39:11.034Z,100979.75
2022-11-14T01:41:38.702Z,100973.75
2022-11-14T01:44:13.285Z,100984.03
2022-11-14T01:46:43.676Z,100978.91
2022-11-14T01:49:17.089Z,100973.78
2022-11-14T01:51:46.973Z,100968.28
2022-11-14T01:54:18.069Z,100967.28
2022-11-14T01:56:48.833Z,100968.81
2022-11-14T01:59:18.717Z,100955.63
2022-11-14T02:01:48.268Z,100949.16
2022-11-14T02:04:19.983Z,100952.00
2022-11-14T02:06:48.020Z,100949.53
2022-11-14T02:09:15.761Z,100949.56
2022-11-14T02:11:44.723Z,100932.44
2022-11-14T02:14:12.596Z,100927.16
2022-11-14T02:16:40.757Z,100930.38
2022-11-14T02:19:09.020Z,100918.91
2022-11-14T02:21:38.028Z,100916.47
2022-11-14T02:24:10.364Z,100922.56
2022-11-14T02:26:38.256Z,100916.75
2022-11-14T02:29:07.319Z,100913.84
2022-11-14T02:31:35.053Z,100913.16
2022-11-14T02:34:02.898Z,100911.41
2022-11-14T02:36:30.545Z,100923.09
2022-11-14T02:38:59.557Z,100924.75
2022-11-14T02:41:27.180Z,100903.09
2022-11-14T02:43:54.823Z,100925.25
2022-11-14T02:46:22.453Z,100919.22
2022-11-14T02:48:50.091Z,100909.00
2022-11-14T02:51:17.743Z,100905.56
2022-11-14T02:53:45.399Z,100905.69
2022-11-14T02:56:14.423Z,100904.72
2022-11-14T02:58:42.114Z,100884.16
2022-11-14T03:01:25.223Z,100904.59
2022-11-14T03:03:53.098Z,100891.41
2022-11-14T03:06:20.764Z,100896.38
2022-11-14T03:08:48.427Z,100892.97
2022-11-14T03:11:17.445Z,100881.97
2022-11-14T03:13:45.102Z,100876.34
2022-11-14T03:16:15.568Z,100880.25
2022-11-14T03:18:43.278Z,100876.50
2022-11-14T03:21:12.731Z,100880.31
2022-11-14T03:23:40.391Z,100875.28
2022-11-14T03:26:09.312Z,100879.75
2022-11-14T03:28:38.782Z,100884.84
2022-11-14T03:31:07.004Z,100876.94
2022-11-14T03:33:37.092Z,100864.00
2022-11-14T03:36:05.772Z,100868.34
2022-11-14T03:38:33.742Z,100861.22
2022-11-14T03:41:01.944Z,100866.34
2022-11-14T03:43:32.015Z,100880.63
2022-11-14T03:46:01.252Z,100862.94
2022-11-14T03:48:29.683Z,100874.59
2022-11-14T03:50:57.588Z,100862.63
2022-11-14T03:53:25.463Z,100875.31
2022-11-14T03:55:53.568Z,100880.50
2022-11-14T03:58:21.308Z,100877.63
2022-11-14T04:00:48.976Z,100883.28
2022-11-14T04:03:18.045Z,100873.38
2022-11-14T04:05:46.173Z,100873.94
2022-11-14T04:08:13.900Z,100872.31
2022-11-14T04:10:41.624Z,100851.63
2022-11-14T04:13:09.704Z,100862.19
2022-11-14T04:15:37.353Z,100846.50
2022-11-14T04:18:05.191Z,100856.63
2022-11-14T04:20:34.168Z,100841.03
2022-11-14T04:23:01.882Z,100845.31
2022-11-14T04:25:29.548Z,100849.59
2022-11-14T04:27:57.187Z,100846.28
2022-11-14T04:30:24.835Z,100837.31
2022-11-14T04:32:52.481Z,100841.16
2022-11-14T04:35:20.189Z,100833.66
2022-11-14T04:37:49.175Z,100852.09
2022-11-14T04:40:17.015Z,100840.34
2022-11-14T04:42:44.690Z,100824.75
2022-11-14T04:45:12.714Z,100828.63
2022-11-14T04:47:42.292Z,100838.47
2022-11-14T04:50:10.389Z,100827.88
2022-11-14T04:52:38.100Z,100823.56
2022-11-14T04:55:07.833Z,100817.47
2022-11-14T04:57:35.486Z,100826.53
2022-11-14T05:00:03.228Z,100833.28
2022-11-14T05:02:32.089Z,100838.19
2022-11-14T05:04:59.790Z,100810.38
2022-11-14T05:07:27.459Z,100815.44
2022-11-14T05:09:55.192Z,100804.81
2022-11-14T05:12:24.199Z,100811.31
2022-11-14T05:14:51.826Z,100810.59
2022-11-14T05:17:19.493Z,100799.59
2022-11-14T05:19:47.169Z,100797.88
2022-11-14T05:22:14.819Z,100811.53
2022-11-14T05:24:42.449Z,100805.84
2022-11-14T05:27:10.281Z,100820.00
2022-11-14T05:29:39.261Z,100798.09
2022-11-14T05:32:06.941Z,100800.13
2022-11-14T05:34:34.578Z,100800.22
2022-11-14T05:37:03.779Z,100804.25
2022-11-14T05:39:31.687Z,100801.59
2022-11-14T05:41:59.339Z,100788.50
2022-11-14T05:44:26.949Z,100785.09
2022-11-14T05:46:55.997Z,100774.66
2022-11-14T05:49:24.389Z,100772.28
2022-11-14T05:51:52.096Z,100773.56
2022-11-14T05:54:19.749Z,100780.22
2022-11-14T05:56:47.389Z,100774.38
2022-11-14T05:59:15.046Z,100768.63
2022-11-14T06:01:42.725Z,100782.47
2022-11-14T06:04:13.353Z,100772.47
2022-11-14T06:06:40.991Z,100771.41
2022-11-14T06:09:08.732Z,100762.00
2022-11-14T06:11:36.361Z,100771.53
2022-11-14T06:14:08.215Z,100758.88
2022-11-14T06:16:38.363Z,100758.66
2022-11-14T06:19:06.267Z,100765.53
2022-11-14T06:21:35.243Z,100765.06
2022-11-14T06:24:03.959Z,100766.31
2022-11-14T06:26:32.592Z,100776.06
2022-11-14T06:29:00.568Z,100776.19
2022-11-14T06:31:28.488Z,100773.31
2022-11-14T06:33:56.784Z,100776.59
2022-11-14T06:36:24.471Z,100774.59
2022-11-14T06:38:53.466Z,100769.34
2022-11-14T06:41:22.088Z,100768.88
2022-11-14T06:43:51.350Z,100779.47
2022-11-14T06:46:20.499Z,100776.31
2022-11-14T06:48:49.135Z,100760.91
2022-11-14T06:51:18.248Z,100761.59
2022-11-14T06:53:46.525Z,100786.38
2022-11-14T06:56:17.164Z,100782.19
2022-11-14T06:58:46.259Z,100769.25
2022-11-14T07:01:15.998Z,100771.78
2022-11-14T07:03:44.249Z,100761.75
2022-11-14T07:06:13.717Z,100773.50
2022-11-14T07:08:41.486Z,100768.66
2022-11-14T07:11:10.566Z,100776.50
2022-11-14T07:13:40.077Z,100766.88
2022-11-14T07:16:08.352Z,100768.47
2022-11-14T07:18:35.975Z,100764.13
2022-11-14T07:21:05.428Z,100766.97
2022-11-14T07:23:33.707Z,100769.66
2022-11-14T07:26:02.915Z,100776.59
2022-11-14T07:28:32.127Z,100778.00
2022-11-14T07:31:03.841Z,100772.66
2022-11-14T07:33:31.532Z,100779.91
2022-11-14T07:35:59.366Z,100783.47
2022-11-14T07:38:27.227Z,100783.31
2022-11-14T07:40:59.611Z,100775.31
2022-11-14T07:43:28.594Z,100786.50
2022-11-14T07:46:01.418Z,100775.88
2022-11-14T07:48:29.487Z,100760.38
2022-11-14T07:50:59.625Z,100760.38
2022-11-14T07:53:27.381Z,100775.00
2022-11-14T07:55:55.147Z,100763.97
2022-11-14T07:58:22.874Z,100755.66
2022-11-14T08:00:50.586Z,100778.38
2022-11-14T08:03:19.605Z,100769.66
2022-11-14T08:05:47.261Z,100762.41
2022-11-14T08:08:14.915Z,100750.88
2022-11-14T08:10:42.574Z,100745.66
2022-11-14T08:16:00.164Z,100760.38
2022-11-14T08:18:29.549Z,100767.53
2022-11-14T08:20:57.639Z,100754.47
2022-11-14T08:23:25.384Z,100762.78
2022-11-14T08:25:53.381Z,100742.97
2022-11-14T08:28:21.045Z,100750.19
2022-11-14T08:30:48.908Z,100745.81
2022-11-14T08:33:16.583Z,100751.91
2022-11-14T08:35:45.657Z,100754.50
2022-11-14T08:38:13.297Z,100748.16
2022-11-14T08:40:41.077Z,100743.03
2022-11-14T08:43:09.704Z,100752.75
2022-11-14T08:45:37.400Z,100752.75
2022-11-14T08:48:05.765Z,100745.88
2022-11-14T08:50:33.436Z,100759.81
2022-11-14T08:53:02.457Z,100771.06
2022-11-14T08:55:30.116Z,100752.59
2022-11-14T08:57:57.743Z,100756.19
2022-11-14T09:00:25.665Z,100763.34
2022-11-14T09:02:53.447Z,100759.50
2022-11-14T09:05:21.416Z,100738.81
2022-11-14T09:07:49.100Z,100758.28
2022-11-14T09:10:18.303Z,100762.63
2022-11-14T09:12:45.953Z,100765.19
2022-11-14T09:15:13.639Z,100771.75
2022-11-14T09:17:41.301Z,100740.50
2022-11-14T09:20:09.712Z,100752.53
2022-11-14T09:22:37.383Z,100745.47
2022-11-14T09:25:05.582Z,100746.44
2022-11-14T09:27:34.565Z,100738.56
2022-11-14T09:30:02.229Z,100748.69
2022-11-14T09:32:29.886Z,100730.38
2022-11-14T09:34:57.529Z,100738.38
2022-11-14T09:37:25.199Z,100734.50
2022-11-14T09:39:52.863Z,100743.56
2022-11-14T09:42:31.719Z,100750.94
2022-11-14T09:45:02.276Z,100736.44
2022-11-14T09:47:32.039Z,100732.41
2022-11-14T09:50:05.829Z,100739.56
2022-11-14T09:52:37.069Z,100747.28
2022-11-14T09:55:11.832Z,100753.19
2022-11-14T09:57:39.859Z,100757.56
2022-11-14T10:00:16.091Z,100754.16
2022-11-14T10:03:07.788Z,100750.06
2022-11-14T10:05:50.695Z,100725.06
2022-11-14T10:08:31.958Z,100731.50
2022-11-14T10:11:03.145Z,100739.94
2022-11-14T10:14:03.327Z,100734.84
2022-11-14T10:16:35.876Z,100745.59
2022-11-14T10:19:15.256Z,100723.00
2022-11-14T10:21:51.588Z,100733.59
2022-11-14T10:24:37.265Z,100732.47
2022-11-14T10:27:06.417Z,100725.63
2022-11-14T10:29:58.342Z,100708.94
2022-11-14T10:32:37.274Z,100701.19
2022-11-14T10:35:08.997Z,100691.94
2022-11-14T10:37:38.940Z,100679.75
2022-11-14T10:40:17.429Z,100678.13
2022-11-14T10:42:47.536Z,100681.28
2022-11-14T10:45:19.300Z,100672.13
2022-11-14T10:47:52.541Z,100672.22
2022-11-14T10:50:22.577Z,100662.25
2022-11-14T10:52:53.926Z,100668.44
2022-11-14T10:55:49.669Z,100670.00
2022-11-14T10:58:14.658Z,100654.59
2022-11-14T11:00:42.354Z,100662.13
2022-11-14T11:03:51.379Z,100635.50
2022-11-14T11:06:26.534Z,100642.41
2022-11-14T11:09:11.709Z,100646.19
2022-11-14T11:11:41.149Z,100647.28
2022-11-14T11:14:17.841Z,100650.38
2022-11-14T11:16:47.692Z,100631.63
2022-11-14T11:19:24.536Z,100643.13
2022-11-14T11:21:54.041Z,100636.00
2022-11-14T11:24:32.340Z,100640.16
2022-11-14T11:27:23.608Z,100645.97
2022-11-14T11:30:07.892Z,100650.88
2022-11-14T11:32:35.616Z,100634.25
2022-11-14T11:35:12.189Z,100658.91
2022-11-14T11:37:43.717Z,100628.56
2022-11-14T11:40:16.923Z,100622.09
2022-11-14T11:45:36.262Z,100610.47
2022-11-14T11:48:11.411Z,100617.88
2022-11-14T11:50:40.892Z,100612.50
2022-11-14T11:53:17.321Z,100599.25
2022-11-14T11:55:46.404Z,100601.53
2022-11-14T11:58:22.879Z,100597.88
2022-11-14T12:00:55.033Z,100595.50
2022-11-14T12:03:24.225Z,100603.75
2022-11-14T12:05:58.544Z,100586.84
2022-11-14T12:08:32.027Z,100598.81
2022-11-14T12:11:00.584Z,100594.97
2022-11-14T12:13:53.665Z,100576.78
2022-11-14T12:16:29.566Z,100574.06
2022-11-14T12:19:16.990Z,100592.47
2022-11-14T12:21:59.257Z,100572.94
2022-11-14T12:24:48.103Z,100583.63
2022-11-14T12:27:32.495Z,100575.78
2022-11-14T12:30:11.981Z,100564.94
2022-11-14T12:32:43.592Z,100542.97
2022-11-14T12:35:18.268Z,100544.22
2022-11-14T12:37:54.236Z,100541.34
2022-11-14T12:40:28.820Z,100550.25
2022-11-14T12:42:57.205Z,100548.81
2022-11-14T12:45:59.028Z,100551.75
2022-11-14T12:48:35.114Z,100542.81
2022-11-14T12:51:04.847Z,100546.34
2022-11-14T12:53:46.101Z,100547.16
2022-11-14T12:56:48.705Z,100544.88
2022-11-14T12:59:30.045Z,100534.97
2022-11-14T13:02:22.032Z,100530.47
2022-11-14T13:05:00.358Z,100542.00
2022-11-14T13:07:34.932Z,100534.25
2022-11-14T13:10:13.838Z,100546.16
2022-11-14T13:13:00.719Z,100546.13
2022-11-14T13:15:50.135Z,100532.13
2022-11-14T13:18:40.073Z,100548.56
2022-11-14T13:21:42.321Z,100522.63
2022-11-14T13:24:14.683Z,100518.84
2022-11-14T13:26:51.882Z,100511.44
2022-11-14T13:29:59.958Z,100500.56
2022-11-14T13:33:04.967Z,100489.91
2022-11-14T13:35:46.472Z,100477.44
2022-11-14T13:38:34.099Z,100476.75
2022-11-14T13:41:09.864Z,100498.22
2022-11-14T13:43:48.372Z,100493.69
2022-11-14T13:46:24.111Z,100495.91
2022-11-14T13:49:14.570Z,100511.16
2022-11-14T13:51:43.892Z,100489.09
2022-11-14T13:54:17.495Z,100496.63
2022-11-14T13:56:53.536Z,100490.44
2022-11-14T13:59:46.233Z,100492.03
2022-11-14T14:02:25.529Z,100488.16
2022-11-14T14:05:00.680Z,100495.00
2022-11-14T14:07:38.279Z,100482.22
2022-11-14T14:10:11.531Z,100478.41
2022-11-14T14:12:48.573Z,100467.34
2022-11-14T14:15:22.444Z,100483.44
2022-11-14T14:18:00.929Z,100471.38
2022-11-14T14:20:36.307Z,100475.22
2022-11-14T14:23:16.576Z,100467.81
2022-11-14T14:25:49.964Z,100472.72
2022-11-14T14:28:22.944Z,100479.84
2022-11-14T14:31:12.217Z,100482.00
2022-11-14T14:33:43.839Z,100484.53
2022-11-14T14:36:19.872Z,100491.72
2022-11-14T14:38:47.864Z,100485.56
2022-11-14T14:41:18.035Z,100483.59
2022-11-14T14:43:52.595Z,100489.28
2022-11-14T14:46:29.863Z,100483.72
2022-11-14T14:48:58.111Z,100466.22
2022-11-14T14:51:33.742Z,100480.09
2022-11-14T14:54:01.485Z,100473.75
2022-11-14T14:56:29.297Z,100469.06
2022-11-14T14:58:57.367Z,100463.41
2022-11-14T15:01:27.788Z,100478.31
2022-11-14T15:03:59.852Z,100460.03
2022-11-14T15:06:32.650Z,100460.28
2022-11-14T15:09:01.980Z,100459.50
2022-11-14T15:11:32.769Z,100451.19
2022-11-14T15:14:01.919Z,100457.81
2022-11-14T15:16:30.804Z,100453.22
2022-11-14T15:19:00.378Z,100440.34
2022-11-14T15:21:29.386Z,100446.66
2022-11-14T15:24:01.337Z,100441.66
2022-11-14T15:26:30.444Z,100449.22
2022-11-14T15:29:12.277Z,100452.47
2022-11-14T15:31:39.938Z,100432.91
2022-11-14T15:34:24.907Z,100440.22
2022-11-14T15:37:23.767Z,100431.75
2022-11-14T15:39:51.544Z,100439.38
2022-11-14T15:42:22.001Z,100437.44
2022-11-14T15:44:49.830Z,100431.50
2022-11-14T15:47:23.144Z,100433.06
2022-11-14T15:49:59.377Z,100415.28
2022-11-14T15:52:30.121Z,100428.38
2022-11-14T15:54:57.756Z,100430.63
2022-11-14T15:57:25.437Z,100423.31
2022-11-14T15:59:53.124Z,100417.16
2022-11-14T16:02:22.919Z,100429.97
2022-11-14T16:04:52.380Z,100424.53
2022-11-14T16:07:21.702Z,100413.09
2022-11-14T16:09:49.460Z,100419.44
2022-11-14T16:12:17.172Z,100425.53
2022-11-14T16:14:44.982Z,100415.94
2022-11-14T16:17:14.858Z,100412.31
2022-11-14T16:19:43.056Z,100409.09
2022-11-14T16:22:11.496Z,100407.22
2022-11-14T16:24:40.518Z,100406.16
2022-11-14T16:27:08.242Z,100408.59
2022-11-14T16:29:35.875Z,100390.38
2022-11-14T16:32:03.709Z,100386.91
2022-11-14T16:34:31.344Z,100386.31
2022-11-14T16:37:00.471Z,100385.38
2022-11-14T16:39:28.185Z,100390.81
2022-11-14T16:42:01.062Z,100369.56
2022-11-14T16:44:28.750Z,100374.41
2022-11-14T16:46:56.416Z,100382.75
2022-11-14T16:49:24.232Z,100374.97
2022-11-14T16:51:52.431Z,100385.03
2022-11-14T16:54:20.627Z,100380.88
2022-11-14T16:56:48.579Z,100392.75
2022-11-14T16:59:17.651Z,100386.13
2022-11-14T17:01:45.983Z,100395.16
2022-11-14T17:04:13.713Z,100392.75
2022-11-14T17:06:41.329Z,100383.69
2022-11-14T17:09:08.989Z,100366.88
2022-11-14T17:11:36.652Z,100366.88
2022-11-14T17:14:04.447Z,100357.72
2022-11-14T17:16:33.452Z,100359.22
2022-11-14T17:19:01.223Z,100362.19
2022-11-14T17:21:28.880Z,100365.72
2022-11-14T17:23:57.172Z,100350.28
2022-11-14T17:26:25.091Z,100344.41
2022-11-14T17:28:52.770Z,100342.81
2022-11-14T17:31:20.681Z,100332.91
2022-11-14T17:33:54.220Z,100329.06
2022-11-14T17:36:22.755Z,100333.47
2022-11-14T17:38:50.608Z,100337.06
2022-11-14T17:41:18.631Z,100326.56
2022-11-14T17:43:46.953Z,100327.16
2022-11-14T17:46:16.255Z,100332.44
2022-11-14T17:48:44.327Z,100323.03
2022-11-14T17:51:14.928Z,100336.97
2022-11-14T17:53:43.216Z,100330.19
2022-11-14T17:56:14.766Z,100333.53
2022-11-14T17:58:42.622Z,100316.31
2022-11-14T18:01:11.390Z,100325.22
2022-11-14T18:03:39.178Z,100320.19
2022-11-14T18:06:08.540Z,100317.16
2022-11-14T18:08:38.168Z,100325.50
2022-11-14T18:11:07.500Z,100318.34
2022-11-14T18:13:35.372Z,100324.94
2022-11-14T18:16:03.564Z,100323.72
2022-11-14T18:18:32.715Z,100324.53
2022-11-14T18:21:07.407Z,100310.25
2022-11-14T18:23:35.964Z,100311.91
2022-11-14T18:26:11.219Z,100300.75
2022-11-14T18:28:39.004Z,100308.94
2022-11-14T18:31:08.330Z,100317.75
2022-11-14T18:33:36.487Z,100310.22
2022-11-14T18:36:05.916Z,100302.50
2022-11-14T18:38:34.085Z,100312.09
2022-11-14T18:41:03.357Z,100299.28
2022-11-14T18:43:33.963Z,100312.88
2022-11-14T18:46:08.540Z,100314.50
2022-11-14T18:48:37.140Z,100315.06
2022-11-14T18:51:06.299Z,100312.09
2022-11-14T18:53:34.756Z,100303.84
2022-11-14T18:56:05.264Z,100320.38
2022-11-14T18:58:35.998Z,100310.88
2022-11-14T19:01:10.690Z,100299.78
2022-11-14T19:03:38.355Z,100306.94
2022-11-14T19:06:07.389Z,100302.75
2022-11-14T19:08:35.328Z,100296.81
2022-11-14T19:11:03.292Z,100301.53
2022-11-14T19:13:31.434Z,100307.75
2022-11-14T19:16:03.728Z,100300.81
2022-11-14T19:18:32.134Z,100307.41
2022-11-14T19:21:00.491Z,100303.41
2022-11-14T19:23:29.732Z,100307.22
2022-11-14T19:25:59.781Z,100294.50
2022-11-14T19:28:27.847Z,100294.69
2022-11-14T19:30:55.509Z,100306.13
2022-11-14T19:33:24.531Z,100299.16
2022-11-14T19:35:52.148Z,100286.63
2022-11-14T19:38:19.833Z,100297.88
2022-11-14T19:40:50.910Z,100302.97
2022-11-14T19:43:18.749Z,100304.25
2022-11-14T19:45:46.383Z,100306.28
2022-11-14T19:48:14.412Z,100297.72
2022-11-14T19:50:43.493Z,100309.88
2022-11-14T19:53:11.414Z,100299.50
2022-11-14T19:55:39.076Z,100304.03
2022-11-14T19:58:06.779Z,100306.28
2022-11-14T20:00:34.416Z,100315.66
2022-11-14T20:03:02.187Z,100306.81
2022-11-14T20:05:29.939Z,100299.06
2022-11-14T20:07:59.047Z,100292.59
2022-11-14T20:10:26.776Z,100293.28
2022-11-14T20:12:54.524Z,100291.34
2022-11-14T20:15:22.367Z,100290.31
2022-11-14T20:17:50.114Z,100291.56
2022-11-14T20:20:17.936Z,100293.88
2022-11-14T20:22:45.680Z,100290.53
2022-11-14T20:25:16.258Z,100285.03
2022-11-14T20:27:44.026Z,100279.75
2022-11-14T20:30:12.525Z,100273.16
2022-11-14T20:32:40.265Z,100284.47
2022-11-14T20:35:08.344Z,100288.19
2022-11-14T20:37:36.087Z,100290.59
2022-11-14T20:40:03.876Z,100285.75
2022-11-14T20:42:33.128Z,100294.09
2022-11-14T20:45:00.928Z,100294.84
2022-11-14T20:47:30.000Z,100295.59
2022-11-14T20:49:57.718Z,100289.25
2022-11-14T20:52:25.456Z,100287.03
2022-11-14T20:54:53.181Z,100293.16
2022-11-14T20:57:20.919Z,100294.00
2022-11-14T20:59:50.015Z,100302.69
2022-11-14T21:02:17.788Z,100294.34
2022-11-14T21:04:45.589Z,100283.66
2022-11-14T21:07:13.305Z,100281.34
2022-11-14T21:09:40.988Z,100264.44
2022-11-14T21:12:08.759Z,100270.03
2022-11-14T21:14:36.442Z,100264.06
2022-11-14T21:17:05.488Z,100269.50
2022-11-14T21:19:33.148Z,100257.75
2022-11-14T21:22:00.782Z,100263.50
2022-11-14T21:24:28.614Z,100261.44
2022-11-14T21:26:56.263Z,100252.94
2022-11-14T21:29:24.049Z,100259.06
2022-11-14T21:31:51.691Z,100248.88
2022-11-14T21:34:20.693Z,100252.28
2022-11-14T21:36:48.560Z,100263.03
2022-11-14T21:39:17.762Z,100268.31
2022-11-14T21:41:48.191Z,100262.28
2022-11-14T21:44:17.413Z,100275.31
2022-11-14T21:46:47.062Z,100271.72
2022-11-14T21:49:14.820Z,100267.56
2022-11-14T21:51:43.831Z,100260.84
2022-11-14T21:54:11.516Z,100280.41
2022-11-14T21:56:39.195Z,100263.72
2022-11-14T21:59:18.581Z,100271.03
2022-11-14T22:02:05.370Z,100266.81
2022-11-14T22:04:33.389Z,100272.66
2022-11-14T22:07:03.692Z,100251.13
2022-11-14T22:09:32.020Z,100253.59
2022-11-14T22:12:01.248Z,100251.41
2022-11-14T22:14:29.265Z,100254.94
2022-11-14T22:16:57.797Z,100254.03
2022-11-14T22:19:25.587Z,100242.50
2022-11-14T22:21:54.171Z,100245.69
2022-11-14T22:24:23.609Z,100238.16
2022-11-14T22:26:51.333Z,100234.69
2022-11-14T22:29:19.038Z,100238.53
2022-11-14T22:31:46.724Z,100247.16
2022-11-14T22:34:14.477Z,100252.91
2022-11-14T22:36:42.123Z,100235.94
2022-11-14T22:39:09.797Z,100247.75
2022-11-14T22:41:38.963Z,100249.47
2022-11-14T22:44:06.709Z,100249.34
2022-11-14T22:46:34.382Z,100239.50
2022-11-14T22:49:03.680Z,100238.34
2022-11-14T22:51:31.732Z,100239.47
2022-11-14T22:53:59.624Z,100238.91
2022-11-14T22:56:28.414Z,100233.56
2022-11-14T22:58:59.441Z,100227.88
2022-11-14T23:01:28.372Z,100228.66
2022-11-14T23:03:57.510Z,100226.22
2022-11-14T23:06:25.726Z,100226.56
2022-11-14T23:08:53.633Z,100243.19
2022-11-14T23:11:22.969Z,100246.56
2022-11-14T23:13:52.068Z,100250.03
2022-11-14T23:16:22.741Z,100237.25
2022-11-14T23:18:51.441Z,100243.03
2022-11-14T23:21:21.342Z,100243.97
2022-11-14T23:23:53.549Z,100245.22
2022-11-14T23:26:21.418Z,100242.50
2022-11-14T23:28:49.119Z,100249.81
2022-11-14T23:31:19.176Z,100246.63
2022-11-14T23:33:48.713Z,100248.31
2022-11-14T23:36:16.785Z,100243.63
2022-11-14T23:38:44.489Z,100234.03
2022-11-14T23:41:17.631Z,100230.94
2022-11-14T23:43:45.410Z,100234.59
2022-11-14T23:46:13.206Z,100226.88
2022-11-14T23:48:41.144Z,100224.53
2022-11-14T23:51:10.584Z,100226.13
2022-11-14T23:53:38.262Z,100227.41
2022-11-14T23:56:06.430Z,100222.91
2022-11-14T23:58:34.052Z,100230.06
